Time;durP1;ratioP1;P1;durP2;ratioP2;P2;SDS_P1;SDS_P2;PMS_P1;PMS_P2;Temp;Humidity;BMP_temperature;BMP_pressure;BME280_temperature;BME280_humidity;BME280_pressure;Samples;Min_cycle;Max_cycle;Signal;HPM_P1;HPM_P2
2022/05/09 00:01:40;;;;;;;6.20;2.80;;;23.50;55.90;;;;;;220190;1270;24245;-52
2022/05/09 00:06:45;;;;;;;5.40;2.90;;;23.50;56.00;;;;;;220100;1268;24297;-55
2022/05/09 00:11:48;;;;;;;6.00;2.50;;;23.50;56.30;;;;;;220164;1270;24062;-56
2022/05/09 00:16:52;;;;;;;5.50;2.90;;;23.50;56.70;;;;;;220423;1267;22581;-56
2022/05/09 00:21:56;;;;;;;5.90;2.50;;;23.60;56.70;;;;;;220395;1267;24268;-60
2022/05/09 00:27:00;;;;;;;11.30;3.00;;;23.50;56.80;;;;;;220413;1267;25494;-52
2022/05/09 00:32:05;;;;;;;5.10;2.80;;;23.50;57.20;;;;;;220277;1267;22634;-54
2022/05/09 00:37:10;;;;;;;5.50;2.60;;;23.50;57.00;;;;;;220410;1270;24226;-55
2022/05/09 00:42:14;;;;;;;6.60;2.90;;;23.50;57.10;;;;;;220442;1270;22544;-56
2022/05/09 00:47:21;;;;;;;7.70;3.30;;;23.50;57.20;;;;;;220721;1270;22844;-57
2022/05/09 00:52:44;;;;;;;4.90;2.70;;;23.50;57.70;;;;;;220489;1268;22904;-54
2022/05/09 00:58:20;;;;;;;7.70;2.70;;;23.50;57.40;;;;;;220184;1270;25354;-57
2022/05/09 01:03:29;;;;;;;7.80;3.10;;;23.50;57.80;;;;;;219998;1270;22576;-57
2022/05/09 01:08:33;;;;;;;6.30;3.70;;;23.60;57.60;;;;;;220298;1270;22544;-56
2022/05/09 01:13:46;;;;;;;6.60;3.30;;;23.60;57.80;;;;;;220232;1270;24310;-54
2022/05/09 01:18:52;;;;;;;7.40;3.00;;;23.60;57.80;;;;;;220135;1270;25121;-61
2022/05/09 01:23:57;;;;;;;5.10;2.80;;;23.60;57.50;;;;;;220424;1270;24221;-57
2022/05/09 01:29:15;;;;;;;5.20;2.80;;;23.60;57.30;;;;;;220661;1270;22532;-56
2022/05/09 01:34:20;;;;;;;5.10;2.60;;;23.50;57.10;;;;;;220378;1268;22530;-60
2022/05/09 01:39:25;;;;;;;6.40;2.80;;;23.50;56.90;;;;;;220158;1270;22582;-55
2022/05/09 01:44:29;;;;;;;6.00;3.00;;;23.50;57.00;;;;;;220168;1268;25490;-57
2022/05/09 01:49:35;;;;;;;5.40;2.50;;;23.50;57.50;;;;;;220157;1270;23704;-54
2022/05/09 01:54:41;;;;;;;6.70;3.00;;;23.40;56.90;;;;;;220001;1270;24468;-56
2022/05/09 01:59:45;;;;;;;4.30;2.60;;;23.40;56.70;;;;;;220206;1268;25140;-60
2022/05/09 02:04:50;;;;;;;5.80;2.20;;;23.40;57.00;;;;;;220316;1270;22698;-55
2022/05/09 02:09:54;;;;;;;3.90;2.40;;;23.40;57.00;;;;;;219946;1270;22591;-56
2022/05/09 02:14:58;;;;;;;4.60;2.50;;;23.30;56.80;;;;;;220239;1270;25479;-57
2022/05/09 02:20:03;;;;;;;5.60;2.20;;;23.30;56.90;;;;;;220325;1267;25414;-58
2022/05/09 02:25:26;;;;;;;5.70;3.00;;;23.30;56.70;;;;;;220037;1268;25475;-57
2022/05/09 02:30:33;;;;;;;5.30;2.50;;;23.30;57.10;;;;;;220525;1270;22573;-59
2022/05/09 02:35:44;;;;;;;6.30;2.30;;;23.30;56.80;;;;;;220509;1270;24401;-56
2022/05/09 02:40:53;;;;;;;4.10;2.40;;;23.30;56.70;;;;;;220207;1270;24403;-55
2022/05/09 02:46:03;;;;;;;4.50;2.70;;;23.20;56.60;;;;;;220010;1271;24250;-57
2022/05/09 02:51:08;;;;;;;4.30;2.50;;;23.20;56.70;;;;;;219994;1268;22544;-54
2022/05/09 02:56:12;;;;;;;3.20;2.00;;;23.20;56.60;;;;;;220335;1270;22529;-56
2022/05/09 03:01:16;;;;;;;4.20;2.30;;;23.20;56.50;;;;;;220301;1270;24305;-55
2022/05/09 03:06:20;;;;;;;4.30;2.60;;;23.20;56.50;;;;;;220259;1270;25442;-57
2022/05/09 03:11:24;;;;;;;7.10;2.70;;;23.20;56.60;;;;;;220028;1270;22551;-55
2022/05/09 03:16:29;;;;;;;3.60;2.30;;;23.20;56.60;;;;;;220337;1268;22543;-54
2022/05/09 03:21:33;;;;;;;4.80;2.30;;;23.10;56.50;;;;;;220215;1270;22564;-56
2022/05/09 03:26:36;;;;;;;3.90;2.20;;;23.10;56.50;;;;;;220129;1271;25659;-55
2022/05/09 03:31:40;;;;;;;4.60;2.30;;;23.10;56.60;;;;;;220214;1269;25728;-57
2022/05/09 03:36:44;;;;;;;3.70;2.00;;;23.10;56.20;;;;;;220415;1270;22564;-57
2022/05/09 03:41:47;;;;;;;6.40;2.60;;;23.10;56.50;;;;;;220104;1270;25368;-59
2022/05/09 03:46:51;;;;;;;4.50;2.30;;;23.10;56.50;;;;;;220138;1270;22523;-54
2022/05/09 03:51:55;;;;;;;4.90;2.30;;;23.10;56.60;;;;;;220018;1270;24323;-56
2022/05/09 03:56:59;;;;;;;5.00;2.30;;;23.00;56.60;;;;;;220300;1270;22558;-56
2022/05/09 04:02:03;;;;;;;4.30;2.20;;;23.00;56.50;;;;;;220187;1270;25388;-54
2022/05/09 04:07:07;;;;;;;3.50;2.40;;;23.00;56.90;;;;;;220130;1268;24398;-53
2022/05/09 04:12:11;;;;;;;4.00;2.50;;;23.00;56.50;;;;;;220332;1270;22623;-56
2022/05/09 04:17:15;;;;;;;4.40;2.00;;;23.00;56.50;;;;;;220298;1270;22531;-56
2022/05/09 04:22:19;;;;;;;4.70;2.60;;;23.00;56.50;;;;;;220309;1270;22733;-54
2022/05/09 04:27:23;;;;;;;4.20;2.20;;;22.90;56.40;;;;;;220086;1270;24266;-53
2022/05/09 04:32:27;;;;;;;5.80;2.50;;;22.90;56.40;;;;;;220184;1270;24361;-53
2022/05/09 04:37:32;;;;;;;3.60;2.20;;;22.90;56.40;;;;;;220229;1268;25388;-56
2022/05/09 04:42:35;;;;;;;5.00;2.00;;;22.90;56.60;;;;;;220398;1271;22533;-54
2022/05/09 04:47:40;;;;;;;3.30;2.40;;;22.90;56.30;;;;;;220128;1268;25201;-54
2022/05/09 04:52:47;;;;;;;5.20;2.40;;;22.90;56.40;;;;;;220360;1269;25234;-57
2022/05/09 04:57:51;;;;;;;3.40;2.10;;;22.90;56.30;;;;;;220135;1271;23262;-55
2022/05/09 05:02:56;;;;;;;3.90;2.10;;;22.90;56.30;;;;;;220441;1270;25235;-56
2022/05/09 05:08:04;;;;;;;3.80;2.00;;;22.90;56.20;;;;;;220320;1268;24352;-56
2022/05/09 05:13:08;;;;;;;3.90;2.00;;;22.90;56.20;;;;;;220492;1271;22576;-56
2022/05/09 05:18:12;;;;;;;5.20;2.40;;;22.90;56.20;;;;;;220266;1268;25491;-54
2022/05/09 05:23:17;;;;;;;3.30;1.80;;;22.90;56.10;;;;;;220219;1271;22695;-57
2022/05/09 05:28:20;;;;;;;5.40;2.30;;;22.90;56.10;;;;;;220473;1271;22528;-58
2022/05/09 05:33:29;;;;;;;3.60;2.20;;;22.90;56.00;;;;;;220213;1268;24215;-56
2022/05/09 05:38:33;;;;;;;7.10;2.40;;;23.00;56.20;;;;;;220496;1271;22732;-54
2022/05/09 05:43:37;;;;;;;7.20;2.40;;;23.00;56.20;;;;;;220370;1271;24309;-53
2022/05/09 05:48:41;;;;;;;8.00;2.80;;;22.90;55.80;;;;;;220147;1268;24240;-52
2022/05/09 05:53:45;;;;;;;10.50;2.60;;;22.90;55.10;;;;;;220331;1268;25382;-53
2022/05/09 05:58:50;;;;;;;7.00;2.70;;;22.90;55.20;;;;;;220118;1268;24533;-56
2022/05/09 06:03:53;;;;;;;6.60;2.60;;;23.00;55.30;;;;;;219955;1271;22599;-50
2022/05/09 06:08:57;;;;;;;6.90;2.90;;;23.00;54.10;;;;;;220200;1271;22544;-53
2022/05/09 06:14:04;;;;;;;12.80;3.20;;;23.00;54.20;;;;;;220020;1268;25537;-54
2022/05/09 06:19:11;;;;;;;21.80;3.10;;;23.00;53.80;;;;;;220154;1268;24634;-50
2022/05/09 06:24:24;;;;;;;11.10;3.60;;;23.00;53.30;;;;;;220123;1271;25575;-55
2022/05/09 06:29:28;;;;;;;12.80;3.10;;;23.00;52.90;;;;;;219911;1268;25401;-50
2022/05/09 06:34:53;;;;;;;20.00;3.60;;;22.90;52.50;;;;;;220354;1268;24284;-51
2022/05/09 06:39:57;;;;;;;16.40;4.20;;;22.90;50.40;;;;;;219955;1268;24273;-51
2022/05/09 06:45:03;;;;;;;8.60;3.60;;;22.90;49.00;;;;;;219887;1271;23144;-51
2022/05/09 06:50:07;;;;;;;15.00;4.30;;;22.80;48.60;;;;;;219950;1268;22723;-52
2022/05/09 06:55:12;;;;;;;12.30;3.70;;;22.70;48.30;;;;;;219933;1268;25533;-50
2022/05/09 07:00:20;;;;;;;8.40;3.50;;;22.70;47.90;;;;;;219943;1268;22552;-52
2022/05/09 07:05:24;;;;;;;13.20;4.30;;;22.70;48.00;;;;;;219835;1269;22544;-51
2022/05/09 07:10:28;;;;;;;12.10;4.60;;;22.50;46.20;;;;;;220332;1268;22570;-52
2022/05/09 07:15:33;;;;;;;10.20;4.20;;;22.50;45.90;;;;;;220101;1271;22544;-53
2022/05/09 07:20:38;;;;;;;9.20;3.70;;;22.30;46.20;;;;;;220514;1268;238848;-48
2022/05/09 07:25:42;;;;;;;9.80;4.20;;;22.20;45.60;;;;;;220205;1268;22556;-51
2022/05/09 07:30:47;;;;;;;9.50;4.30;;;22.40;45.50;;;;;;220083;1268;22566;-64
2022/05/09 07:35:50;;;;;;;7.90;3.50;;;22.50;45.40;;;;;;220294;1268;22608;-50
2022/05/09 07:40:54;;;;;;;7.60;3.70;;;22.50;44.80;;;;;;220475;1268;22591;-54
2022/05/09 07:45:58;;;;;;;13.50;4.00;;;22.40;44.60;;;;;;219967;1268;22564;-50
2022/05/09 07:51:03;;;;;;;9.20;3.60;;;22.50;44.30;;;;;;219891;1268;24330;-53
2022/05/09 07:56:07;;;;;;;7.50;3.40;;;22.50;44.60;;;;;;220039;1268;25402;-51
2022/05/09 08:01:11;;;;;;;7.10;3.40;;;22.60;45.70;;;;;;220273;1268;26502;-53
2022/05/09 08:06:15;;;;;;;7.00;3.60;;;22.60;45.00;;;;;;220490;1268;22554;-52
2022/05/09 08:11:21;;;;;;;8.10;3.30;;;22.60;46.00;;;;;;220364;1268;22568;-51
2022/05/09 08:16:26;;;;;;;7.00;3.40;;;22.70;46.10;;;;;;219734;1268;22617;-52
2022/05/09 08:21:31;;;;;;;8.90;3.60;;;22.70;46.00;;;;;;219947;1267;25418;-49
2022/05/09 08:26:37;;;;;;;8.80;3.90;;;22.80;46.10;;;;;;219999;1268;25301;-48
2022/05/09 08:31:41;;;;;;;6.30;3.20;;;22.70;46.70;;;;;;219972;1268;22634;-48
2022/05/09 08:36:55;;;;;;;6.50;2.90;;;22.80;46.90;;;;;;220013;1268;22528;-52
2022/05/09 08:42:06;;;;;;;6.50;3.60;;;22.80;46.90;;;;;;220113;1268;22530;-52
2022/05/09 08:47:35;;;;;;;7.10;3.20;;;22.80;46.90;;;;;;219921;1268;24056;-53
2022/05/09 08:52:49;;;;;;;5.30;3.10;;;22.80;47.30;;;;;;219776;1267;22593;-53
2022/05/09 08:58:00;;;;;;;8.10;3.50;;;22.90;46.10;;;;;;220334;1270;22607;-51
2022/05/09 09:03:28;;;;;;;6.90;3.20;;;22.90;46.10;;;;;;219962;1268;25540;-51
2022/05/09 09:08:50;;;;;;;6.30;3.10;;;23.00;45.90;;;;;;219744;1268;25663;-50
2022/05/09 09:14:16;;;;;;;6.50;3.00;;;23.00;46.00;;;;;;219758;1268;25314;-51
2022/05/09 09:20:08;;;;;;;5.30;2.90;;;23.00;46.30;;;;;;219703;1268;24279;-51
2022/05/09 09:25:24;;;;;;;8.70;3.30;;;23.00;45.70;;;;;;219903;1268;23009;-52
2022/05/09 09:30:31;;;;;;;6.30;2.80;;;23.00;45.60;;;;;;219969;1268;23076;-52
2022/05/09 09:35:55;;;;;;;6.80;3.20;;;23.00;45.60;;;;;;220205;1268;22610;-52
2022/05/09 09:41:17;;;;;;;6.10;2.40;;;23.00;46.20;;;;;;220287;1268;22627;-52
2022/05/09 09:46:22;;;;;;;8.10;2.50;;;23.00;43.60;;;;;;220516;1268;24532;-49
2022/05/09 09:51:29;;;;;;;6.60;2.60;;;23.10;43.20;;;;;;220129;1268;25311;-51
2022/05/09 09:56:34;;;;;;;6.80;3.00;;;23.00;43.00;;;;;;219869;1268;22614;-52
2022/05/09 10:01:37;;;;;;;6.50;2.80;;;23.10;42.80;;;;;;219960;1268;24297;-51
2022/05/09 10:06:59;;;;;;;7.60;3.00;;;23.20;40.60;;;;;;219980;1268;22576;-51
2022/05/09 10:12:22;;;;;;;8.00;2.80;;;23.10;39.70;;;;;;220096;1268;22622;-54
2022/05/09 10:17:34;;;;;;;9.60;2.80;;;23.20;40.80;;;;;;220130;1268;22532;-52
2022/05/09 10:28:13;;;;;;;7.50;3.10;;;23.20;41.60;;;;;;220009;1269;26467;-49
2022/05/09 10:33:46;;;;;;;7.10;3.00;;;23.20;39.60;;;;;;219710;1268;22735;-51
2022/05/09 10:39:03;;;;;;;10.00;3.30;;;23.30;38.90;;;;;;220122;1267;25696;-50
2022/05/09 10:44:27;;;;;;;10.30;3.00;;;23.30;39.30;;;;;;219787;1268;23052;-49
2022/05/09 10:49:44;;;;;;;5.00;2.80;;;23.30;38.40;;;;;;219924;1268;24783;-51
2022/05/09 10:54:52;;;;;;;8.00;2.50;;;23.40;39.00;;;;;;219642;1268;24438;-52
2022/05/09 11:00:09;;;;;;;6.60;2.80;;;23.50;38.90;;;;;;220420;1268;22593;-54
2022/05/09 11:05:14;;;;;;;8.10;3.20;;;23.40;39.30;;;;;;219705;1267;25556;-50
2022/05/09 11:10:27;;;;;;;8.10;3.30;;;23.30;40.20;;;;;;219906;1268;25313;-53
2022/05/09 11:15:55;;;;;;;4.70;3.10;;;23.40;41.50;;;;;;220044;1268;22547;-50
2022/05/09 11:21:27;;;;;;;6.30;2.80;;;23.40;41.40;;;;;;220100;1268;22833;-50
2022/05/09 11:27:13;;;;;;;6.60;2.90;;;23.30;41.50;;;;;;219944;1268;25350;-55
2022/05/09 11:32:36;;;;;;;7.90;2.80;;;23.20;40.60;;;;;;219221;1268;25346;-54
2022/05/09 11:38:05;;;;;;;8.80;3.30;;;23.30;41.00;;;;;;219781;1270;26974;-53
2022/05/09 11:43:53;;;;;;;7.70;3.30;;;23.30;39.10;;;;;;219850;1268;26257;-53
2022/05/09 11:49:24;;;;;;;8.00;3.10;;;23.30;40.10;;;;;;219660;1268;26431;-52
2022/05/09 11:54:38;;;;;;;7.40;3.00;;;23.30;39.80;;;;;;219826;1268;22562;-53
2022/05/09 11:59:55;;;;;;;5.10;2.90;;;23.30;40.60;;;;;;219848;1268;23979;-48
2022/05/09 12:04:59;;;;;;;6.60;2.90;;;23.40;39.20;;;;;;220367;1268;25305;-50
2022/05/09 12:10:15;;;;;;;8.80;3.20;;;23.30;40.10;;;;;;220072;1268;24227;-49
2022/05/09 12:15:19;;;;;;;7.20;2.90;;;23.20;39.60;;;;;;220123;1268;22746;-51
2022/05/09 12:20:29;;;;;;;5.70;2.90;;;23.20;38.80;;;;;;219827;1268;22676;-50
2022/05/09 12:25:36;;;;;;;8.60;3.20;;;23.10;38.60;;;;;;220022;1268;22714;-54
2022/05/09 12:30:44;;;;;;;6.50;2.80;;;23.00;38.30;;;;;;220008;1268;22666;-50
2022/05/09 12:35:51;;;;;;;6.50;2.80;;;23.00;38.50;;;;;;219929;1268;24322;-51
2022/05/09 12:41:39;;;;;;;8.10;3.00;;;23.00;37.60;;;;;;219861;1268;24341;-49
2022/05/09 12:46:51;;;;;;;5.30;2.70;;;23.00;37.70;;;;;;219548;1268;24371;-49
2022/05/09 12:51:57;;;;;;;5.30;2.60;;;23.00;37.80;;;;;;220189;1268;25312;-53
2022/05/09 12:57:04;;;;;;;5.60;2.90;;;22.90;37.70;;;;;;220360;1268;25240;-52
2022/05/09 13:02:08;;;;;;;7.50;2.50;;;23.10;38.20;;;;;;219954;1268;23072;-50
2022/05/09 13:07:32;;;;;;;5.80;2.80;;;23.20;37.80;;;;;;219957;1268;25303;-53
2022/05/09 13:12:42;;;;;;;5.20;2.60;;;23.20;38.40;;;;;;219562;1270;25252;-49
2022/05/09 13:17:49;;;;;;;8.70;2.90;;;23.30;38.50;;;;;;220176;1268;22555;-53
2022/05/09 13:23:01;;;;;;;10.20;4.10;;;23.30;39.40;;;;;;219638;1268;22603;-50
2022/05/09 13:28:08;;;;;;;17.50;8.70;;;23.40;41.80;;;;;;219689;1268;25603;-52
2022/05/09 13:33:17;;;;;;;34.90;11.20;;;23.40;42.50;;;;;;220094;1268;24020;-53
2022/05/09 13:38:35;;;;;;;23.50;7.90;;;23.40;42.00;;;;;;219686;1268;22548;-53
2022/05/09 13:43:43;;;;;;;13.60;4.40;;;23.30;38.80;;;;;;219938;1268;22784;-52
2022/05/09 13:48:54;;;;;;;12.00;3.90;;;23.10;38.00;;;;;;220576;1268;24262;-53
2022/05/09 13:54:04;;;;;;;8.80;3.50;;;23.10;37.50;;;;;;220351;1268;22719;-52
2022/05/09 13:59:09;;;;;;;10.00;3.40;;;23.20;36.90;;;;;;219927;1268;22541;-49
2022/05/09 14:04:24;;;;;;;9.50;3.60;;;23.20;37.30;;;;;;219591;1267;23003;-49
2022/05/09 14:09:32;;;;;;;11.50;4.20;;;23.30;36.70;;;;;;219766;1267;25541;-53
2022/05/09 14:14:41;;;;;;;8.40;2.80;;;23.40;37.10;;;;;;219651;1268;24199;-50
2022/05/09 14:19:49;;;;;;;9.60;2.90;;;23.40;37.60;;;;;;220106;1267;22565;-55
2022/05/09 14:30:35;;;;;;;9.90;3.00;;;23.40;37.40;;;;;;219538;1270;22641;-52
2022/05/09 14:35:44;;;;;;;8.20;2.90;;;23.30;38.10;;;;;;219720;1268;22659;-51
2022/05/09 14:40:50;;;;;;;8.00;2.90;;;23.40;38.60;;;;;;219958;1268;22567;-53
2022/05/09 14:46:06;;;;;;;10.80;3.00;;;23.20;38.20;;;;;;220103;1268;26176;-49
2022/05/09 14:51:16;;;;;;;6.20;2.80;;;23.10;37.90;;;;;;219786;1268;22599;-55
2022/05/09 15:01:56;;;;;;;12.70;3.50;;;23.10;36.90;;;;;;219915;1268;22636;-52
2022/05/09 15:07:05;;;;;;;6.30;2.60;;;23.10;36.10;;;;;;220035;1269;22770;-50
2022/05/09 15:12:29;;;;;;;6.10;3.10;;;23.20;36.20;;;;;;219956;1268;25396;-49
2022/05/09 15:17:38;;;;;;;6.30;2.30;;;23.40;35.70;;;;;;219781;1268;26557;-50
2022/05/09 15:22:42;;;;;;;7.10;2.50;;;23.60;35.70;;;;;;219617;1268;22544;-52
2022/05/09 15:27:46;;;;;;;4.80;2.60;;;23.70;35.30;;;;;;219984;1268;24340;-54
2022/05/09 15:32:54;;;;;;;6.60;2.90;;;23.90;36.90;;;;;;220022;1268;24270;-52
2022/05/09 15:38:01;;;;;;;5.70;2.10;;;24.00;36.30;;;;;;219858;1268;22974;-50
2022/05/09 15:43:06;;;;;;;6.40;2.30;;;24.00;36.80;;;;;;219706;1268;22792;-50
2022/05/09 15:48:12;;;;;;;6.40;2.50;;;24.00;37.10;;;;;;220184;1268;22644;-54
2022/05/09 15:53:18;;;;;;;7.60;3.40;;;24.10;37.20;;;;;;219855;1268;22528;-51
2022/05/09 15:58:45;;;;;;;4.60;2.30;;;24.00;37.30;;;;;;220310;1268;25353;-54
2022/05/09 16:03:53;;;;;;;5.70;2.80;;;24.00;37.40;;;;;;219946;1268;22531;-46
2022/05/09 16:14:24;;;;;;;8.00;2.60;;;23.90;38.20;;;;;;219621;1268;22557;-53
2022/05/09 16:19:53;;;;;;;4.40;2.60;;;23.90;38.50;;;;;;219758;1270;24130;-52
2022/05/09 16:25:05;;;;;;;6.90;2.40;;;23.90;38.90;;;;;;219721;1270;24316;-51
2022/05/09 16:30:38;;;;;;;5.20;2.70;;;23.90;38.70;;;;;;219924;1268;25275;-53
2022/05/09 16:35:44;;;;;;;5.00;2.50;;;23.80;38.80;;;;;;220176;1269;26553;-50
2022/05/09 16:40:52;;;;;;;5.00;2.70;;;23.90;38.60;;;;;;220221;1268;22713;-50
2022/05/09 16:46:06;;;;;;;5.80;2.50;;;23.80;39.00;;;;;;219946;1268;22614;-52
2022/05/09 16:51:13;;;;;;;4.80;2.60;;;23.80;39.10;;;;;;220094;1268;22551;-54
2022/05/09 16:56:29;;;;;;;5.80;2.60;;;23.80;39.20;;;;;;219968;1268;22583;-52
2022/05/09 17:01:42;;;;;;;7.80;2.60;;;23.80;39.20;;;;;;219652;1270;22758;-50
2022/05/09 17:06:50;;;;;;;10.50;2.50;;;23.70;39.40;;;;;;219357;1267;22634;-53
2022/05/09 17:12:04;;;;;;;6.00;2.70;;;23.50;36.80;;;;;;219196;1268;24303;-50
2022/05/09 17:17:10;;;;;;;9.40;2.70;;;23.30;36.20;;;;;;219257;1268;24428;-52
2022/05/09 17:22:14;;;;;;;7.60;2.70;;;23.20;36.10;;;;;;219772;1268;23019;-56
2022/05/09 17:27:40;;;;;;;9.40;2.30;;;23.20;35.70;;;;;;219866;1267;24290;-56
2022/05/09 17:32:51;;;;;;;;;;;23.10;35.40;;;;;;219874;1267;22572;-56
2022/05/09 17:38:11;;;;;;;9.90;2.60;;;23.10;35.40;;;;;;220018;1268;22565;-55
2022/05/09 17:43:16;;;;;;;6.50;2.30;;;23.10;35.40;;;;;;219571;1270;22547;-56
2022/05/09 17:48:21;;;;;;;9.50;2.70;;;23.20;35.90;;;;;;220352;1268;22611;-56
2022/05/09 17:53:40;;;;;;;5.40;2.50;;;23.30;38.30;;;;;;220501;1270;25396;-56
2022/05/09 17:58:47;;;;;;;5.10;2.60;;;23.30;38.00;;;;;;220237;1267;23954;-55
2022/05/09 18:03:51;;;;;;;7.60;2.50;;;23.30;39.80;;;;;;220215;1268;25329;-55
2022/05/09 18:08:57;;;;;;;11.30;2.50;;;23.40;40.20;;;;;;220000;1268;23044;-60
2022/05/09 18:14:01;;;;;;;8.70;3.10;;;23.50;39.80;;;;;;219997;1270;22570;-55
2022/05/09 18:19:09;;;;;;;18.60;3.90;;;23.50;40.00;;;;;;220175;1270;24202;-56
2022/05/09 18:24:21;;;;;;;9.60;3.40;;;23.60;42.30;;;;;;219906;1270;24218;-55
2022/05/09 18:29:33;;;;;;;15.40;3.10;;;23.60;42.50;;;;;;219998;1268;22535;-57
2022/05/09 18:34:44;;;;;;;14.70;3.00;;;23.60;42.30;;;;;;219845;1270;22801;-56
2022/05/09 18:39:57;;;;;;;14.70;3.10;;;23.70;43.00;;;;;;219915;1267;25354;-57
2022/05/09 18:45:02;;;;;;;10.00;2.50;;;23.70;43.00;;;;;;220024;1269;22538;-57
2022/05/09 18:55:39;;;;;;;9.90;3.20;;;23.70;42.80;;;;;;219968;1267;22538;-56
2022/05/09 19:00:50;;;;;;;6.10;2.50;;;23.70;43.20;;;;;;220275;1267;24390;-58
2022/05/09 19:05:57;;;;;;;;;;;23.70;43.20;;;;;;220218;1268;24575;-57
2022/05/09 19:11:17;;;;;;;5.20;2.80;;;23.70;43.50;;;;;;220296;1268;24223;-56
2022/05/09 19:16:28;;;;;;;8.90;2.60;;;23.70;43.50;;;;;;220396;1269;24240;-57
2022/05/09 19:21:32;;;;;;;10.90;3.10;;;23.70;43.50;;;;;;219836;1270;233659;-55
2022/05/09 19:26:42;;;;;;;10.40;3.00;;;23.80;43.40;;;;;;219839;1267;24212;-54
2022/05/09 19:31:50;;;;;;;10.60;3.10;;;23.70;43.80;;;;;;219909;1268;22474;-58
2022/05/09 19:36:56;;;;;;;11.50;2.90;;;23.70;43.90;;;;;;220068;1270;22772;-55
2022/05/09 19:42:10;;;;;;;10.60;2.20;;;23.70;44.10;;;;;;219775;1267;25320;-58
2022/05/09 19:47:26;;;;;;;9.40;3.00;;;23.70;44.10;;;;;;220003;1270;22548;-57
2022/05/09 19:58:13;;;;;;;11.00;2.90;;;23.70;44.60;;;;;;220427;1270;22710;-57
2022/05/09 20:03:24;;;;;;;14.60;3.40;;;23.70;44.30;;;;;;220198;1270;25682;-53
2022/05/09 20:08:38;;;;;;;7.90;3.10;;;23.70;44.50;;;;;;220122;1270;23428;-51
2022/05/09 20:13:52;;;;;;;7.40;2.80;;;23.60;44.40;;;;;;220030;1270;23965;-53
2022/05/09 20:18:59;;;;;;;17.10;3.10;;;23.60;44.80;;;;;;220112;1267;22711;-52
2022/05/09 20:24:06;;;;;;;10.60;2.60;;;23.70;45.20;;;;;;219984;1270;25685;-54
2022/05/09 20:30:14;;;;;;;12.70;3.70;;;23.60;45.80;;;;;;220352;1270;22791;-54
2022/05/09 20:34:46;;;;;;;21.30;4.20;;;23.70;47.50;;;;;;220184;1270;25272;-53
2022/05/09 20:39:50;;;;;;;12.00;3.60;;;23.70;49.70;;;;;;220009;1270;22573;-55
2022/05/09 20:44:56;;;;;;;10.40;3.00;;;23.70;48.40;;;;;;219958;1268;25514;-53
2022/05/09 20:50:00;;;;;;;17.70;4.20;;;23.70;48.90;;;;;;220034;1270;22535;-49
2022/05/09 20:55:10;;;;;;;17.00;4.50;;;23.60;50.50;;;;;;220094;1268;24655;-54
2022/05/09 21:00:19;;;;;;;17.10;4.00;;;23.70;50.60;;;;;;219866;1270;25464;-54
2022/05/09 21:05:23;;;;;;;9.90;3.00;;;23.60;50.20;;;;;;219990;1269;22740;-51
2022/05/09 21:10:33;;;;;;;11.30;3.20;;;23.60;50.10;;;;;;220101;1268;23072;-53
2022/05/09 21:15:37;;;;;;;13.60;3.00;;;23.60;49.90;;;;;;220050;1269;22564;-53
2022/05/09 21:20:44;;;;;;;9.20;3.10;;;23.60;49.70;;;;;;220279;1270;22699;-55
2022/05/09 21:25:49;;;;;;;10.40;3.10;;;23.60;49.50;;;;;;220139;1270;25353;-54
2022/05/09 21:31:05;;;;;;;14.10;3.20;;;23.60;49.70;;;;;;220200;1270;24361;-53
2022/05/09 21:36:18;;;;;;;10.60;3.50;;;23.60;49.40;;;;;;219879;1270;22613;-53
2022/05/09 21:41:31;;;;;;;6.80;2.60;;;23.60;49.30;;;;;;220100;1270;25491;-51
2022/05/09 21:46:39;;;;;;;16.90;3.60;;;23.60;49.60;;;;;;220164;1270;26565;-53
2022/05/09 21:51:50;;;;;;;9.60;3.10;;;23.50;49.10;;;;;;219729;1268;26706;-52
2022/05/09 21:56:57;;;;;;;8.20;2.90;;;23.50;49.50;;;;;;219892;1270;22551;-47
2022/05/09 22:02:02;;;;;;;6.90;3.00;;;23.50;49.10;;;;;;219881;1270;26483;-54
2022/05/09 22:07:07;;;;;;;9.00;2.70;;;23.50;49.50;;;;;;219899;1270;23674;-51
2022/05/09 22:12:12;;;;;;;8.40;2.60;;;23.50;49.10;;;;;;220085;1270;25782;-55
2022/05/09 22:17:16;;;;;;;7.90;2.80;;;23.50;49.00;;;;;;220347;1271;22574;-55
2022/05/09 22:22:21;;;;;;;8.00;3.10;;;23.50;49.00;;;;;;220286;1268;22812;-50
2022/05/09 22:27:29;;;;;;;5.40;2.20;;;23.50;49.00;;;;;;220014;1269;26534;-50
2022/05/09 22:32:46;;;;;;;5.10;2.70;;;23.50;48.80;;;;;;220301;1270;25472;-54
2022/05/09 22:37:54;;;;;;;5.90;2.50;;;23.50;52.00;;;;;;220104;1270;24217;-54
2022/05/09 22:43:31;;;;;;;6.60;2.90;;;23.50;49.80;;;;;;220274;1270;22573;-56
2022/05/09 22:48:40;;;;;;;5.90;2.70;;;23.50;49.90;;;;;;220220;1270;22808;-54
2022/05/09 22:53:44;;;;;;;5.80;2.50;;;23.50;50.70;;;;;;220387;1270;22548;-55
2022/05/09 22:58:49;;;;;;;4.20;2.40;;;23.40;49.90;;;;;;220083;1270;22726;-54
2022/05/09 23:03:54;;;;;;;5.90;2.50;;;23.40;49.90;;;;;;220172;1269;22545;-53
2022/05/09 23:08:58;;;;;;;4.90;2.50;;;23.40;50.00;;;;;;220168;1270;23217;-51
2022/05/09 23:14:05;;;;;;;6.10;2.40;;;23.40;49.90;;;;;;220479;1270;26795;-53
2022/05/09 23:19:10;;;;;;;8.00;3.10;;;23.40;50.20;;;;;;220668;1270;24369;-52
2022/05/09 23:24:14;;;;;;;4.70;2.50;;;23.30;49.90;;;;;;220598;1271;22543;-54
2022/05/09 23:29:24;;;;;;;4.90;2.50;;;23.30;50.00;;;;;;220312;1271;26473;-54
2022/05/09 23:34:30;;;;;;;6.10;2.70;;;23.30;50.30;;;;;;220350;1270;24293;-50
2022/05/09 23:39:34;;;;;;;6.40;2.90;;;23.30;50.70;;;;;;220457;1270;22883;-52
2022/05/09 23:44:39;;;;;;;4.70;2.40;;;23.20;50.20;;;;;;220116;1270;22538;-53
2022/05/09 23:49:44;;;;;;;6.30;2.60;;;23.20;50.20;;;;;;220270;1270;25335;-55
2022/05/09 23:54:51;;;;;;;4.80;2.40;;;23.20;50.20;;;;;;220160;1269;25413;-51
2022/05/09 23:59:55;;;;;;;5.80;2.50;;;23.20;50.60;;;;;;220214;1268;22671;-54
